Terminal Aerodrome Forecast
Issued by NWS Twin Cities, MN

Home | Current Version | Previous Version | Text Only | Print | Product List | Glossary On
Versions: 1 2 3 4 5 6 7 8 9 10 11 12 13 14 15 16 17 18 19 20 21 22 23 24 25 26
000
FTUS43 KMPX 170800 AAA
TAFMSP
TAF AMD
KMSP 170851Z 1709/1812 14004KT P6SM BKN060
     FM171500 25005KT P6SM FEW060
     FM172100 02006KT P6SM SKC
     FM180300 08005KT P6SM SKC=

USA.gov is the U.S. government's official web portal to all federal, state and local government web resources and services.